HZD weather

Carroll County Airport
Huntingdon, Tennessee, United States

Public forecast

Using degrees Fahrenheit for public forecast. Weather courtesy of forecast.io.

Closest aviation weather report (METAR) to Carroll County Airport

Closest report is Henry County Airport, 15.4 nm (28.6 km) NNE. Retrieved 2020/04/05 19:15 UTC (7 minutes ago):

KPHT 051915Z AUTO 00000KT 10SM CLR 21/12 A3007 RMK A01

Closest aviation forecast (TAF) to Carroll County Airport

Closest forecast is McKellar-Sipes Regional Airport, 36.7 nm (68.0 km) SW. Retrieved 2020/04/05 18:39 UTC (43 minutes ago):

TAF KMKL 051736Z 0518/0618 36004KT P6SM SKC FM060800 07003KT 6SM BR SCT250 FM061300 08004KT P6SM SCT150